Time;durP1;ratioP1;P1;durP2;ratioP2;P2;SDS_P1;SDS_P2;PMS_P1;PMS_P2;Temp;Humidity;BMP_temperature;BMP_pressure;BME280_temperature;BME280_humidity;BME280_pressure;Samples;Min_cycle;Max_cycle;Signal;HPM_P1;HPM_P2
2023/07/19 00:00:33;;;;;;;0.20;0.20;;;;;;;;;;5073058;28;20037;-72
2023/07/19 00:02:59;;;;;;;0.20;0.20;;;;;;;;;;5072799;28;20036;-71
2023/07/19 00:05:25;;;;;;;0.20;0.20;;;;;;;;;;5072905;28;20473;-70
2023/07/19 00:07:50;;;;;;;0.30;0.30;;;;;;;;;;5072806;28;20044;-70
2023/07/19 00:10:16;;;;;;;0.20;0.20;;;;;;;;;;5071245;28;20040;-70
2023/07/19 00:12:41;;;;;;;0.20;0.20;;;;;;;;;;5072851;28;20027;-69
2023/07/19 00:15:07;;;;;;;0.20;0.20;;;;;;;;;;5056935;28;20033;-71
2023/07/19 00:17:32;;;;;;;0.25;0.25;;;;;;;;;;5081569;28;20032;-71
2023/07/19 00:19:58;;;;;;;0.20;0.20;;;;;;;;;;5082168;28;20033;-71
2023/07/19 00:22:23;;;;;;;0.20;0.20;;;;;;;;;;5075862;28;20082;-71
2023/07/19 00:24:49;;;;;;;0.20;0.20;;;;;;;;;;5071173;28;20032;-73
2023/07/19 00:27:24;;;;;;;0.30;0.30;;;;;;;;;;5057412;28;20025;-72
2023/07/19 00:29:53;;;;;;;0.20;0.20;;;;;;;;;;5051413;28;20507;-73
2023/07/19 00:32:21;;;;;;;0.20;0.20;;;;;;;;;;5051579;28;20116;-72
2023/07/19 00:34:47;;;;;;;0.20;0.20;;;;;;;;;;5054467;28;20055;-73
2023/07/19 00:37:12;;;;;;;0.20;0.20;;;;;;;;;;5072422;28;20045;-71
2023/07/19 00:39:38;;;;;;;0.20;0.20;;;;;;;;;;5053079;28;20086;-72
2023/07/19 00:42:03;;;;;;;0.95;0.95;;;;;;;;;;5072341;28;20468;-73
2023/07/19 00:44:29;;;;;;;0.20;0.20;;;;;;;;;;5072195;28;20039;-73
2023/07/19 00:46:55;;;;;;;0.20;0.20;;;;;;;;;;5057943;28;20471;-72
2023/07/19 00:49:20;;;;;;;0.20;0.20;;;;;;;;;;5075816;28;20107;-71
2023/07/19 00:51:46;;;;;;;0.20;0.20;;;;;;;;;;5057866;28;20458;-71
2023/07/19 00:54:12;;;;;;;0.40;0.40;;;;;;;;;;5075567;28;20174;-71
2023/07/19 00:56:40;;;;;;;0.20;0.20;;;;;;;;;;5057961;28;20509;-71
2023/07/19 00:59:05;;;;;;;0.20;0.20;;;;;;;;;;5075728;28;20025;-70
2023/07/19 01:01:31;;;;;;;0.20;0.20;;;;;;;;;;5057343;28;20131;-71
2023/07/19 01:03:56;;;;;;;0.20;0.20;;;;;;;;;;5075698;28;20036;-71
2023/07/19 01:06:22;;;;;;;1.63;1.52;;;;;;;;;;5075620;28;20029;-70
2023/07/19 01:08:48;;;;;;;0.20;0.20;;;;;;;;;;5074086;28;20037;-71
2023/07/19 01:11:13;;;;;;;0.80;0.75;;;;;;;;;;5075701;28;20068;-71
2023/07/19 01:13:55;;;;;;;0.20;0.20;;;;;;;;;;5075392;28;20064;-70
2023/07/19 01:16:20;;;;;;;0.20;0.20;;;;;;;;;;5075597;28;20033;-70
2023/07/19 01:18:46;;;;;;;0.20;0.20;;;;;;;;;;5075284;28;20039;-71
2023/07/19 01:21:12;;;;;;;0.43;0.43;;;;;;;;;;5075258;28;20058;-72
2023/07/19 01:23:37;;;;;;;0.50;0.50;;;;;;;;;;5057310;28;20028;-72
2023/07/19 01:26:03;;;;;;;0.20;0.20;;;;;;;;;;5056176;28;20028;-71
2023/07/19 01:28:29;;;;;;;0.20;0.20;;;;;;;;;;5073552;28;20033;-71
2023/07/19 01:30:54;;;;;;;0.40;0.40;;;;;;;;;;5075213;28;20037;-71
2023/07/19 01:33:22;;;;;;;0.20;0.20;;;;;;;;;;5075567;28;20040;-71
2023/07/19 01:35:47;;;;;;;0.20;0.20;;;;;;;;;;5075042;28;20589;-72
2023/07/19 01:38:13;;;;;;;0.20;0.20;;;;;;;;;;5075010;28;20479;-71
2023/07/19 01:40:38;;;;;;;0.20;0.20;;;;;;;;;;5073745;28;20032;-71
2023/07/19 01:43:04;;;;;;;0.20;0.20;;;;;;;;;;5074915;28;20028;-72
2023/07/19 01:45:29;;;;;;;0.20;0.20;;;;;;;;;;5075051;28;20062;-72
2023/07/19 01:47:55;;;;;;;0.20;0.20;;;;;;;;;;5075097;28;20024;-72
2023/07/19 01:50:20;;;;;;;0.20;0.20;;;;;;;;;;5074613;28;20416;-72
2023/07/19 01:52:46;;;;;;;0.10;0.10;;;;;;;;;;5075141;28;20076;-70
2023/07/19 01:55:11;;;;;;;2.85;2.58;;;;;;;;;;5055143;28;20514;-71
2023/07/19 01:57:37;;;;;;;0.20;0.20;;;;;;;;;;5074753;28;20040;-72
2023/07/19 02:00:03;;;;;;;0.20;0.20;;;;;;;;;;5057089;28;20033;-72
2023/07/19 02:02:41;;;;;;;0.20;0.20;;;;;;;;;;5074705;28;20044;-72
2023/07/19 02:05:07;;;;;;;0.20;0.20;;;;;;;;;;5073297;28;20033;-71
2023/07/19 02:07:32;;;;;;;0.20;0.20;;;;;;;;;;5074998;28;20123;-72
2023/07/19 02:09:58;;;;;;;0.10;0.10;;;;;;;;;;5072903;28;20036;-72
2023/07/19 02:12:24;;;;;;;0.10;0.10;;;;;;;;;;5074686;28;20070;-71
2023/07/19 02:14:54;;;;;;;0.20;0.20;;;;;;;;;;5056621;28;20059;-72
2023/07/19 02:17:19;;;;;;;0.20;0.20;;;;;;;;;;5074607;28;20036;-72
2023/07/19 02:19:45;;;;;;;0.13;0.13;;;;;;;;;;5056372;28;20071;-72
2023/07/19 02:22:10;;;;;;;0.20;0.20;;;;;;;;;;5074421;28;20028;-71
2023/07/19 02:24:36;;;;;;;0.20;0.20;;;;;;;;;;5072884;28;20032;-71
2023/07/19 02:27:02;;;;;;;0.20;0.20;;;;;;;;;;5074377;28;20032;-71
2023/07/19 02:29:27;;;;;;;0.10;0.10;;;;;;;;;;5074282;28;20040;-71
2023/07/19 02:31:53;;;;;;;0.20;0.20;;;;;;;;;;5074364;28;20036;-71
2023/07/19 02:34:20;;;;;;;0.20;0.20;;;;;;;;;;5056353;28;20043;-71
2023/07/19 02:36:46;;;;;;;0.17;0.17;;;;;;;;;;5039840;28;20513;-71
2023/07/19 02:39:12;;;;;;;0.20;0.20;;;;;;;;;;5074139;28;20056;-72
2023/07/19 02:41:37;;;;;;;0.20;0.20;;;;;;;;;;5072030;28;20052;-73
2023/07/19 02:44:03;;;;;;;0.20;0.20;;;;;;;;;;5065141;28;20036;-72
2023/07/19 02:46:29;;;;;;;0.20;0.20;;;;;;;;;;5068082;28;20020;-72
2023/07/19 02:48:54;;;;;;;0.20;0.20;;;;;;;;;;5065645;28;20039;-70
2023/07/19 02:51:20;;;;;;;0.20;0.20;;;;;;;;;;5067235;28;20392;-72
2023/07/19 02:53:45;;;;;;;0.20;0.20;;;;;;;;;;5073905;28;20040;-71
2023/07/19 02:56:11;;;;;;;0.20;0.20;;;;;;;;;;5072642;28;20032;-73
2023/07/19 02:58:36;;;;;;;0.20;0.20;;;;;;;;;;5073854;28;20483;-72
2023/07/19 03:01:02;;;;;;;0.20;0.20;;;;;;;;;;5073987;28;20041;-72
2023/07/19 03:03:29;;;;;;;0.20;0.20;;;;;;;;;;5068772;28;20391;-72
2023/07/19 03:05:55;;;;;;;0.20;0.20;;;;;;;;;;5070051;28;20107;-72
2023/07/19 03:08:20;;;;;;;0.20;0.20;;;;;;;;;;5051047;28;20674;-73
2023/07/19 03:10:47;;;;;;;0.20;0.20;;;;;;;;;;5067818;28;20671;-72
2023/07/19 03:13:12;;;;;;;0.20;0.20;;;;;;;;;;5070282;28;20037;-71
2023/07/19 03:15:38;;;;;;;0.20;0.20;;;;;;;;;;5069420;28;20057;-71
2023/07/19 03:18:04;;;;;;;0.10;0.10;;;;;;;;;;5070008;28;20390;-73
2023/07/19 03:20:32;;;;;;;0.20;0.20;;;;;;;;;;5068981;28;20120;-72
2023/07/19 03:23:00;;;;;;;0.20;0.20;;;;;;;;;;5050382;28;20037;-72
2023/07/19 03:25:27;;;;;;;0.20;0.20;;;;;;;;;;5069131;28;20021;-73
2023/07/19 03:27:53;;;;;;;0.10;0.10;;;;;;;;;;5051278;28;20039;-72
2023/07/19 03:30:18;;;;;;;0.20;0.20;;;;;;;;;;5069257;28;20529;-72
2023/07/19 03:32:45;;;;;;;0.20;0.20;;;;;;;;;;5049206;28;20067;-72
2023/07/19 03:35:11;;;;;;;0.20;0.20;;;;;;;;;;5065634;28;20583;-72
2023/07/19 03:37:37;;;;;;;0.20;0.20;;;;;;;;;;5048829;28;20020;-72
2023/07/19 03:40:04;;;;;;;0.20;0.20;;;;;;;;;;5047862;28;20029;-72
2023/07/19 03:42:31;;;;;;;0.20;0.20;;;;;;;;;;5048684;28;20123;-72
2023/07/19 03:44:56;;;;;;;0.20;0.20;;;;;;;;;;5049107;28;20167;-72
2023/07/19 03:47:22;;;;;;;0.20;0.20;;;;;;;;;;5050220;28;20035;-70
2023/07/19 03:49:47;;;;;;;0.20;0.20;;;;;;;;;;5068633;28;20830;-70
2023/07/19 03:52:13;;;;;;;0.20;0.20;;;;;;;;;;5051341;28;20028;-70
2023/07/19 03:54:38;;;;;;;0.20;0.20;;;;;;;;;;5067107;28;20040;-71
2023/07/19 03:57:04;;;;;;;0.20;0.20;;;;;;;;;;5050783;28;20078;-72
2023/07/19 03:59:30;;;;;;;0.20;0.20;;;;;;;;;;5068995;28;20071;-71
2023/07/19 04:01:55;;;;;;;0.20;0.20;;;;;;;;;;5049573;28;20029;-71
2023/07/19 04:04:21;;;;;;;0.20;0.20;;;;;;;;;;5068158;28;20460;-70
2023/07/19 04:06:47;;;;;;;0.20;0.20;;;;;;;;;;5050767;28;20044;-71
2023/07/19 04:09:12;;;;;;;0.20;0.20;;;;;;;;;;5049421;28;20112;-71
2023/07/19 04:11:38;;;;;;;0.20;0.20;;;;;;;;;;5066660;28;20387;-69
2023/07/19 04:14:03;;;;;;;0.20;0.20;;;;;;;;;;5049770;28;20039;-71
2023/07/19 04:16:29;;;;;;;0.20;0.20;;;;;;;;;;5050202;28;20032;-71
2023/07/19 04:18:54;;;;;;;0.20;0.20;;;;;;;;;;5049840;28;20507;-72
2023/07/19 04:21:21;;;;;;;0.20;0.20;;;;;;;;;;5049980;28;20036;-72
2023/07/19 04:23:47;;;;;;;0.20;0.20;;;;;;;;;;5068545;28;20033;-72
2023/07/19 04:26:13;;;;;;;0.20;0.20;;;;;;;;;;5048977;28;20040;-71
2023/07/19 04:28:39;;;;;;;0.20;0.20;;;;;;;;;;5067632;28;20041;-71
2023/07/19 04:31:05;;;;;;;4.65;4.35;;;;;;;;;;5048850;28;20108;-71
2023/07/19 04:33:31;;;;;;;0.20;0.20;;;;;;;;;;5068498;28;20032;-71
2023/07/19 04:35:57;;;;;;;0.20;0.20;;;;;;;;;;5049622;28;20036;-71
2023/07/19 04:38:23;;;;;;;0.20;0.20;;;;;;;;;;5068135;28;20029;-72
2023/07/19 04:40:48;;;;;;;0.20;0.20;;;;;;;;;;5050747;28;20040;-72
2023/07/19 04:43:14;;;;;;;0.20;0.20;;;;;;;;;;5049255;28;20116;-70
2023/07/19 04:45:43;;;;;;;0.20;0.20;;;;;;;;;;5049022;28;20424;-71
2023/07/19 04:48:10;;;;;;;0.20;0.20;;;;;;;;;;5050386;28;20434;-72
2023/07/19 04:50:36;;;;;;;0.20;0.20;;;;;;;;;;5066444;28;20086;-71
2023/07/19 04:53:02;;;;;;;0.20;0.20;;;;;;;;;;5050565;28;20028;-72
2023/07/19 04:55:28;;;;;;;0.20;0.20;;;;;;;;;;5049168;28;20082;-70
2023/07/19 04:57:54;;;;;;;0.30;0.30;;;;;;;;;;5050820;28;20051;-72
2023/07/19 05:00:20;;;;;;;0.50;0.50;;;;;;;;;;5047738;28;20507;-71
2023/07/19 05:02:45;;;;;;;0.28;0.28;;;;;;;;;;5056299;28;20032;-69
2023/07/19 05:05:12;;;;;;;3.20;0.98;;;;;;;;;;5074609;28;20085;-70
2023/07/19 05:07:38;;;;;;;0.30;0.30;;;;;;;;;;5058348;28;20053;-70
2023/07/19 05:10:04;;;;;;;3.40;1.65;;;;;;;;;;5067157;28;20087;-72
2023/07/19 05:12:31;;;;;;;0.20;0.20;;;;;;;;;;5064231;28;20022;-73
2023/07/19 05:14:57;;;;;;;0.28;0.28;;;;;;;;;;5066869;28;20384;-72
2023/07/19 05:17:22;;;;;;;0.20;0.20;;;;;;;;;;5065771;28;20032;-72
2023/07/19 05:19:48;;;;;;;0.20;0.20;;;;;;;;;;5068274;28;20040;-73
2023/07/19 05:22:14;;;;;;;0.95;0.88;;;;;;;;;;5067471;28;20066;-72
2023/07/19 05:24:39;;;;;;;0.20;0.20;;;;;;;;;;5065030;28;20040;-72
2023/07/19 05:27:05;;;;;;;0.20;0.20;;;;;;;;;;5067527;28;20121;-72
2023/07/19 05:29:31;;;;;;;0.20;0.20;;;;;;;;;;5067899;28;20082;-72
2023/07/19 05:31:57;;;;;;;0.20;0.20;;;;;;;;;;5070272;28;20455;-70
2023/07/19 05:34:22;;;;;;;0.20;0.20;;;;;;;;;;5070860;28;20047;-72
2023/07/19 05:36:48;;;;;;;0.20;0.20;;;;;;;;;;5071011;28;20039;-71
2023/07/19 05:39:14;;;;;;;0.20;0.20;;;;;;;;;;5068249;28;20053;-72
2023/07/19 05:41:39;;;;;;;0.30;0.30;;;;;;;;;;5051821;28;20036;-72
2023/07/19 05:44:05;;;;;;;0.20;0.20;;;;;;;;;;5069471;28;20036;-72
2023/07/19 05:46:33;;;;;;;0.30;0.30;;;;;;;;;;5068326;28;20029;-71
2023/07/19 05:48:58;;;;;;;0.40;0.40;;;;;;;;;;5069598;28;20040;-71
2023/07/19 05:51:24;;;;;;;0.20;0.20;;;;;;;;;;5071150;28;20035;-71
2023/07/19 05:53:49;;;;;;;0.20;0.20;;;;;;;;;;5071001;28;20045;-72
2023/07/19 05:56:15;;;;;;;0.22;0.22;;;;;;;;;;5071006;28;20025;-71
2023/07/19 05:58:40;;;;;;;0.20;0.20;;;;;;;;;;5070773;28;20085;-71
2023/07/19 06:01:09;;;;;;;0.30;0.30;;;;;;;;;;5067518;28;20459;-71
2023/07/19 06:03:34;;;;;;;0.30;0.30;;;;;;;;;;5070606;28;20040;-71
2023/07/19 06:06:02;;;;;;;0.30;0.30;;;;;;;;;;5071263;28;20037;-71
2023/07/19 06:08:28;;;;;;;0.40;0.40;;;;;;;;;;5062200;28;20032;-71
2023/07/19 06:10:54;;;;;;;0.20;0.20;;;;;;;;;;5061639;28;20086;-72
2023/07/19 06:13:19;;;;;;;0.30;0.30;;;;;;;;;;5068878;28;20055;-72
2023/07/19 06:15:44;;;;;;;0.40;0.40;;;;;;;;;;5051371;28;20033;-73
2023/07/19 06:18:10;;;;;;;0.28;0.28;;;;;;;;;;5067009;28;20040;-73
2023/07/19 06:20:35;;;;;;;0.30;0.30;;;;;;;;;;5068645;28;20146;-73
2023/07/19 06:23:02;;;;;;;0.30;0.30;;;;;;;;;;5065698;28;20066;-73
2023/07/19 06:25:27;;;;;;;0.20;0.20;;;;;;;;;;5064155;28;20265;-73
2023/07/19 06:27:53;;;;;;;0.40;0.40;;;;;;;;;;5064310;28;20089;-74
2023/07/19 06:30:18;;;;;;;0.20;0.20;;;;;;;;;;5047847;28;20107;-72
2023/07/19 06:32:44;;;;;;;0.30;0.30;;;;;;;;;;5067060;28;20093;-73
2023/07/19 06:35:09;;;;;;;0.30;0.30;;;;;;;;;;5069412;28;20036;-74
2023/07/19 06:37:35;;;;;;;0.30;0.30;;;;;;;;;;5066728;28;20036;-73
2023/07/19 06:40:03;;;;;;;0.20;0.20;;;;;;;;;;5065467;28;20107;-74
2023/07/19 06:42:33;;;;;;;0.52;0.52;;;;;;;;;;5065091;28;20064;-73
2023/07/19 06:44:59;;;;;;;0.32;0.32;;;;;;;;;;5068752;28;20071;-73
2023/07/19 06:47:26;;;;;;;0.30;0.30;;;;;;;;;;5066881;28;20040;-71
2023/07/19 06:49:51;;;;;;;0.40;0.40;;;;;;;;;;5061822;28;20037;-71
2023/07/19 06:52:17;;;;;;;0.38;0.38;;;;;;;;;;5062972;28;20486;-71
2023/07/19 06:54:42;;;;;;;0.30;0.30;;;;;;;;;;5067889;28;20551;-71
2023/07/19 06:57:07;;;;;;;0.40;0.40;;;;;;;;;;5049032;28;20083;-74
2023/07/19 06:59:33;;;;;;;0.30;0.30;;;;;;;;;;5060732;28;20025;-74
2023/07/19 07:01:59;;;;;;;0.52;0.52;;;;;;;;;;5049254;28;20476;-73
2023/07/19 07:04:25;;;;;;;0.35;0.35;;;;;;;;;;5031126;28;20031;-74
2023/07/19 07:06:51;;;;;;;0.20;0.20;;;;;;;;;;5048097;28;20087;-73
2023/07/19 07:09:16;;;;;;;1.10;1.10;;;;;;;;;;5049311;28;20047;-74
2023/07/19 07:11:42;;;;;;;0.60;0.60;;;;;;;;;;5065027;28;20055;-73
2023/07/19 07:14:08;;;;;;;0.38;0.38;;;;;;;;;;5068475;28;20040;-73
2023/07/19 07:16:34;;;;;;;0.25;0.25;;;;;;;;;;5062288;28;20029;-74
2023/07/19 07:19:00;;;;;;;0.30;0.30;;;;;;;;;;5049478;28;20037;-72
2023/07/19 07:21:25;;;;;;;0.40;0.40;;;;;;;;;;5049220;28;20041;-72
2023/07/19 07:23:51;;;;;;;0.30;0.30;;;;;;;;;;5049147;28;20029;-72
2023/07/19 07:26:16;;;;;;;0.40;0.40;;;;;;;;;;5049361;28;20383;-72
2023/07/19 07:28:42;;;;;;;0.82;0.82;;;;;;;;;;5048639;28;20162;-73
2023/07/19 07:31:08;;;;;;;0.30;0.30;;;;;;;;;;5066513;28;20040;-73
2023/07/19 07:33:34;;;;;;;1.50;1.40;;;;;;;;;;5068427;28;20071;-72
2023/07/19 07:36:00;;;;;;;8.90;4.60;;;;;;;;;;5068897;28;20064;-72
2023/07/19 07:38:26;;;;;;;6.13;3.50;;;;;;;;;;5068174;28;20081;-73
2023/07/19 07:40:51;;;;;;;5.55;2.70;;;;;;;;;;5061781;28;20217;-72
2023/07/19 07:43:17;;;;;;;0.47;0.47;;;;;;;;;;5057579;28;20033;-72
2023/07/19 07:45:42;;;;;;;1.48;1.10;;;;;;;;;;5068341;28;20028;-72
2023/07/19 07:48:07;;;;;;;0.30;0.30;;;;;;;;;;5066668;28;20028;-72
2023/07/19 07:50:33;;;;;;;5.10;1.67;;;;;;;;;;5066690;28;20029;-72
2023/07/19 07:52:58;;;;;;;0.63;0.63;;;;;;;;;;5068258;28;20036;-72
2023/07/19 07:55:24;;;;;;;0.70;0.70;;;;;;;;;;5061182;28;20047;-72
2023/07/19 08:01:08;;;;;;;0.40;0.40;;;;;;;;;;5135365;27;20624;-72
2023/07/19 08:03:34;;;;;;;0.40;0.40;;;;;;;;;;5121081;28;20111;-72
2023/07/19 08:05:59;;;;;;;0.50;0.50;;;;;;;;;;5090548;28;20039;-72
2023/07/19 08:08:24;;;;;;;0.30;0.30;;;;;;;;;;5122439;28;20031;-71
2023/07/19 08:10:50;;;;;;;1.38;1.27;;;;;;;;;;5124027;28;20066;-72
2023/07/19 08:13:16;;;;;;;0.45;0.45;;;;;;;;;;5108905;28;20032;-72
2023/07/19 08:15:41;;;;;;;0.68;0.68;;;;;;;;;;5123822;28;20031;-71
2023/07/19 08:18:07;;;;;;;0.50;0.50;;;;;;;;;;5124510;27;20046;-72
2023/07/19 08:20:33;;;;;;;8.95;1.77;;;;;;;;;;5122108;28;20477;-72
2023/07/19 08:22:58;;;;;;;2.70;1.95;;;;;;;;;;5116332;28;20031;-72
2023/07/19 08:25:24;;;;;;;3.63;2.33;;;;;;;;;;5114041;28;20374;-72
2023/07/19 08:27:49;;;;;;;9.20;4.72;;;;;;;;;;5120390;28;20027;-73
2023/07/19 08:30:17;;;;;;;3.42;1.98;;;;;;;;;;5125565;28;20415;-72
2023/07/19 08:32:44;;;;;;;1.10;1.00;;;;;;;;;;5099588;28;20036;-72
2023/07/19 08:35:10;;;;;;;0.70;0.70;;;;;;;;;;5106931;28;20034;-72
2023/07/19 08:37:35;;;;;;;2.20;1.70;;;;;;;;;;5124213;28;20462;-72
2023/07/19 08:40:00;;;;;;;1.05;1.00;;;;;;;;;;5124232;27;20093;-71
2023/07/19 08:42:26;;;;;;;0.95;0.75;;;;;;;;;;5121980;28;20034;-72
2023/07/19 08:44:52;;;;;;;1.70;1.27;;;;;;;;;;5093161;28;20116;-72
2023/07/19 08:47:17;;;;;;;0.38;0.38;;;;;;;;;;5114722;28;20473;-72
2023/07/19 08:49:42;;;;;;;6.75;2.65;;;;;;;;;;5103662;28;20126;-72
2023/07/19 08:52:08;;;;;;;0.70;0.70;;;;;;;;;;5123625;28;20043;-72
2023/07/19 08:54:33;;;;;;;1.10;1.05;;;;;;;;;;5121755;28;20126;-72
2023/07/19 08:56:59;;;;;;;5.18;2.88;;;;;;;;;;5121548;28;20118;-73
2023/07/19 08:59:25;;;;;;;2.92;1.77;;;;;;;;;;5125375;27;20587;-73
2023/07/19 09:01:50;;;;;;;0.50;0.50;;;;;;;;;;5125051;28;20099;-73
2023/07/19 09:04:16;;;;;;;3.33;2.00;;;;;;;;;;5125103;28;20028;-74
2023/07/19 09:06:41;;;;;;;2.78;1.63;;;;;;;;;;5122930;28;20038;-73
2023/07/19 09:09:10;;;;;;;7.72;2.78;;;;;;;;;;5122808;28;20031;-73
2023/07/19 09:11:36;;;;;;;5.38;2.92;;;;;;;;;;5087978;28;20032;-73
2023/07/19 09:14:01;;;;;;;2.40;1.42;;;;;;;;;;5109499;28;20118;-73
2023/07/19 09:16:27;;;;;;;9.75;4.93;;;;;;;;;;5109009;28;20386;-72
2023/07/19 09:18:54;;;;;;;12.10;3.55;;;;;;;;;;5090653;28;20023;-73
2023/07/19 09:21:37;;;;;;;0.50;0.50;;;;;;;;;;5110851;28;20393;-73
2023/07/19 09:24:03;;;;;;;2.20;1.20;;;;;;;;;;5110952;28;20039;-72
2023/07/19 09:26:42;;;;;;;8.20;3.15;;;;;;;;;;5110851;28;20043;-73
2023/07/19 09:29:08;;;;;;;;;;;;;;;;;;5111195;28;20035;-73
2023/07/19 09:31:48;;;;;;;0.50;0.50;;;;;;;;;;5111162;28;20727;-73
2023/07/19 09:34:14;;;;;;;2.47;1.52;;;;;;;;;;5111100;28;20089;-73
2023/07/19 09:36:40;;;;;;;6.50;2.75;;;;;;;;;;5110868;28;20390;-72
2023/07/19 09:39:06;;;;;;;2.47;1.65;;;;;;;;;;5092460;28;20036;-72
2023/07/19 09:41:32;;;;;;;0.50;0.50;;;;;;;;;;5092475;28;20027;-74
2023/07/19 09:43:58;;;;;;;7.97;1.23;;;;;;;;;;5102162;28;20040;-73
2023/07/19 09:46:25;;;;;;;5.22;2.30;;;;;;;;;;5089943;28;20089;-73
2023/07/19 09:48:51;;;;;;;1.48;1.02;;;;;;;;;;5090151;28;20463;-73
2023/07/19 09:51:18;;;;;;;0.50;0.50;;;;;;;;;;5091212;28;20107;-73
2023/07/19 09:53:44;;;;;;;9.75;2.45;;;;;;;;;;5090539;28;20098;-73
2023/07/19 09:56:11;;;;;;;2.05;1.70;;;;;;;;;;5090381;28;21092;-73
2023/07/19 09:58:38;;;;;;;1.38;0.82;;;;;;;;;;5106320;28;20023;-72
2023/07/19 10:01:03;;;;;;;7.07;2.10;;;;;;;;;;5107061;28;20122;-72
2023/07/19 10:03:29;;;;;;;3.05;1.52;;;;;;;;;;5110893;28;20608;-72
2023/07/19 10:05:55;;;;;;;0.98;0.95;;;;;;;;;;5103858;28;20557;-72
2023/07/19 10:08:21;;;;;;;3.08;1.15;;;;;;;;;;5109770;28;20398;-72
2023/07/19 10:10:46;;;;;;;0.63;0.63;;;;;;;;;;5110131;28;20039;-73
2023/07/19 10:13:14;;;;;;;2.38;1.95;;;;;;;;;;5080140;28;20047;-73
2023/07/19 10:15:39;;;;;;;0.98;0.65;;;;;;;;;;5090331;28;20028;-72
2023/07/19 10:18:14;;;;;;;0.75;0.75;;;;;;;;;;5097781;28;20111;-72
2023/07/19 10:20:40;;;;;;;12.10;2.33;;;;;;;;;;5090339;28;20548;-73
2023/07/19 10:23:06;;;;;;;1.52;1.38;;;;;;;;;;5105262;28;20036;-72
2023/07/19 10:25:32;;;;;;;4.50;2.00;;;;;;;;;;5096067;28;20597;-72
2023/07/19 10:28:02;;;;;;;4.22;2.05;;;;;;;;;;5087528;28;20035;-72
2023/07/19 10:30:46;;;;;;;1.00;1.00;;;;;;;;;;5091804;28;20054;-72
2023/07/19 10:33:12;;;;;;;6.68;1.83;;;;;;;;;;5092592;28;20054;-72
2023/07/19 10:35:38;;;;;;;1.50;0.88;;;;;;;;;;5098638;28;20155;-72
2023/07/19 10:38:04;;;;;;;1.92;1.77;;;;;;;;;;5086236;28;20063;-72
2023/07/19 10:40:29;;;;;;;1.35;1.25;;;;;;;;;;5095494;28;20079;-72
2023/07/19 10:42:55;;;;;;;1.15;1.02;;;;;;;;;;5109247;28;20600;-72
2023/07/19 10:45:21;;;;;;;0.60;0.60;;;;;;;;;;5103769;28;20034;-73
2023/07/19 10:47:46;;;;;;;5.38;2.20;;;;;;;;;;5108638;28;20465;-73
2023/07/19 10:50:12;;;;;;;0.82;0.82;;;;;;;;;;5108047;28;20031;-73
2023/07/19 10:52:37;;;;;;;0.80;0.80;;;;;;;;;;5101035;28;20032;-72
2023/07/19 10:55:03;;;;;;;2.35;1.30;;;;;;;;;;5090533;28;20073;-73
2023/07/19 10:57:30;;;;;;;0.57;0.57;;;;;;;;;;5070151;28;20415;-73
2023/07/19 10:59:56;;;;;;;0.70;0.70;;;;;;;;;;5089043;28;20383;-72
2023/07/19 11:02:21;;;;;;;4.20;2.38;;;;;;;;;;5103633;28;20031;-72
2023/07/19 11:04:47;;;;;;;31.27;2.78;;;;;;;;;;5102153;28;20039;-72
2023/07/19 11:07:12;;;;;;;1.13;1.05;;;;;;;;;;5094214;28;20035;-71
2023/07/19 11:09:50;;;;;;;1.92;0.57;;;;;;;;;;5089785;28;20428;-72
2023/07/19 11:12:15;;;;;;;4.68;2.97;;;;;;;;;;5092267;28;20028;-71
2023/07/19 11:14:44;;;;;;;0.75;0.75;;;;;;;;;;5109148;28;20527;-71
2023/07/19 11:17:22;;;;;;;2.00;1.55;;;;;;;;;;5109187;28;20035;-72
2023/07/19 11:19:47;;;;;;;5.45;1.85;;;;;;;;;;5109540;28;20043;-71
2023/07/19 11:22:19;;;;;;;0.60;0.60;;;;;;;;;;5105750;28;20031;-71
2023/07/19 11:24:45;;;;;;;2.25;1.05;;;;;;;;;;5093776;28;20073;-72
2023/07/19 11:27:12;;;;;;;3.53;1.70;;;;;;;;;;5089088;28;20378;-72
2023/07/19 11:29:37;;;;;;;2.75;1.40;;;;;;;;;;5088389;28;20040;-72
2023/07/19 11:32:20;;;;;;;1.75;0.95;;;;;;;;;;5088760;28;20031;-72
2023/07/19 11:34:46;;;;;;;1.23;1.10;;;;;;;;;;5089969;28;20024;-72
2023/07/19 11:37:24;;;;;;;4.88;3.03;;;;;;;;;;5089191;28;20039;-72
2023/07/19 11:39:51;;;;;;;0.60;0.60;;;;;;;;;;5108130;28;20115;-72
2023/07/19 11:42:35;;;;;;;3.53;1.60;;;;;;;;;;5108689;28;20032;-72
2023/07/19 11:45:06;;;;;;;4.15;2.40;;;;;;;;;;5073594;28;20094;-73
2023/07/19 11:47:32;;;;;;;11.10;3.42;;;;;;;;;;5107773;28;20501;-72
2023/07/19 11:49:57;;;;;;;6.25;2.17;;;;;;;;;;5108931;28;20024;-73
2023/07/19 11:52:23;;;;;;;9.32;2.25;;;;;;;;;;5100064;28;20124;-72
2023/07/19 11:54:48;;;;;;;4.35;2.13;;;;;;;;;;5088008;28;20471;-72
2023/07/19 11:57:14;;;;;;;6.18;2.10;;;;;;;;;;5072312;28;20031;-72
2023/07/19 11:59:39;;;;;;;6.43;5.88;;;;;;;;;;5094161;28;20116;-73
2023/07/19 12:02:04;;;;;;;2.38;2.28;;;;;;;;;;5101585;28;20377;-72
2023/07/19 12:04:31;;;;;;;1.35;1.10;;;;;;;;;;5093558;28;20052;-72
2023/07/19 12:06:56;;;;;;;1.45;1.08;;;;;;;;;;5087453;28;20082;-72
2023/07/19 12:09:22;;;;;;;0.70;0.70;;;;;;;;;;5103530;28;20043;-72
2023/07/19 12:11:47;;;;;;;1.73;1.05;;;;;;;;;;5107545;28;20457;-72
2023/07/19 12:14:13;;;;;;;6.20;2.50;;;;;;;;;;5108806;28;20107;-72
2023/07/19 12:16:38;;;;;;;1.58;1.02;;;;;;;;;;5106298;28;20059;-72
2023/07/19 12:19:04;;;;;;;5.20;2.28;;;;;;;;;;5108275;28;20486;-72
2023/07/19 12:21:29;;;;;;;1.13;1.02;;;;;;;;;;5108119;28;20030;-72
2023/07/19 12:23:55;;;;;;;1.48;1.33;;;;;;;;;;5108196;28;20028;-72
2023/07/19 12:26:21;;;;;;;6.53;2.25;;;;;;;;;;5108360;28;20037;-72
2023/07/19 12:28:47;;;;;;;5.72;2.10;;;;;;;;;;5107911;28;20039;-72
2023/07/19 12:31:12;;;;;;;3.33;3.05;;;;;;;;;;5090233;28;20027;-72
2023/07/19 12:33:39;;;;;;;10.00;2.97;;;;;;;;;;5106967;28;20415;-72
2023/07/19 12:36:04;;;;;;;1.35;1.20;;;;;;;;;;5102599;28;20024;-72
2023/07/19 12:38:30;;;;;;;1.83;0.98;;;;;;;;;;5098959;28;20034;-72
2023/07/19 12:40:55;;;;;;;2.53;1.73;;;;;;;;;;5093340;28;20035;-73
2023/07/19 12:43:21;;;;;;;4.85;2.40;;;;;;;;;;5106725;28;20031;-74
2023/07/19 12:45:46;;;;;;;2.67;2.47;;;;;;;;;;5110014;28;20044;-73
2023/07/19 12:48:12;;;;;;;1.52;0.90;;;;;;;;;;5108519;28;20394;-72
2023/07/19 12:50:37;;;;;;;6.30;1.70;;;;;;;;;;5103878;28;20040;-73
2023/07/19 12:53:02;;;;;;;5.00;2.17;;;;;;;;;;5104059;28;20478;-72
2023/07/19 12:55:28;;;;;;;8.98;2.35;;;;;;;;;;5091045;28;20314;-72
2023/07/19 12:57:54;;;;;;;1.52;1.15;;;;;;;;;;5091248;28;20035;-73
2023/07/19 13:00:19;;;;;;;6.63;2.28;;;;;;;;;;5072696;28;20043;-72
2023/07/19 13:02:45;;;;;;;6.32;1.75;;;;;;;;;;5092512;28;20043;-73
2023/07/19 13:05:10;;;;;;;6.18;1.67;;;;;;;;;;5091115;28;20016;-73
2023/07/19 13:07:36;;;;;;;3.50;1.23;;;;;;;;;;5093206;28;20095;-73
2023/07/19 13:10:02;;;;;;;9.25;2.75;;;;;;;;;;5110874;28;20065;-73
2023/07/19 13:12:28;;;;;;;4.47;2.13;;;;;;;;;;5093117;28;20394;-72
2023/07/19 13:14:53;;;;;;;1.35;1.08;;;;;;;;;;5107078;28;20028;-73
2023/07/19 13:17:19;;;;;;;1.98;1.38;;;;;;;;;;5111091;28;20031;-73
2023/07/19 13:19:45;;;;;;;0.60;0.60;;;;;;;;;;5111291;28;20063;-73
2023/07/19 13:22:10;;;;;;;5.72;2.00;;;;;;;;;;5101061;28;20038;-73
2023/07/19 13:24:36;;;;;;;4.60;1.63;;;;;;;;;;5110802;28;20032;-73
2023/07/19 13:27:04;;;;;;;2.30;1.23;;;;;;;;;;5104893;28;20092;-73
2023/07/19 13:29:30;;;;;;;6.37;1.53;;;;;;;;;;5090540;28;20114;-73
2023/07/19 13:31:55;;;;;;;10.57;3.10;;;;;;;;;;5106281;28;20406;-73
2023/07/19 13:34:21;;;;;;;4.82;1.90;;;;;;;;;;5104620;28;20032;-74
2023/07/19 13:36:46;;;;;;;2.47;1.45;;;;;;;;;;5108668;28;20024;-73
2023/07/19 13:39:12;;;;;;;1.05;0.95;;;;;;;;;;5110373;28;20034;-73
2023/07/19 13:41:38;;;;;;;4.13;1.38;;;;;;;;;;5095766;28;20020;-73
2023/07/19 13:44:03;;;;;;;2.60;2.05;;;;;;;;;;5094195;28;20040;-73
2023/07/19 13:46:29;;;;;;;11.57;2.58;;;;;;;;;;5090155;28;20028;-74
2023/07/19 13:48:54;;;;;;;3.25;1.30;;;;;;;;;;5090755;28;20375;-73
2023/07/19 13:51:19;;;;;;;1.17;1.08;;;;;;;;;;5101498;28;20031;-73
2023/07/19 13:53:45;;;;;;;5.22;1.50;;;;;;;;;;5103885;28;20131;-73
2023/07/19 13:56:11;;;;;;;3.83;2.33;;;;;;;;;;5100970;28;20481;-73
2023/07/19 13:58:37;;;;;;;2.55;1.00;;;;;;;;;;5107748;28;20364;-73
2023/07/19 14:01:02;;;;;;;5.22;2.13;;;;;;;;;;5101686;28;20028;-73
2023/07/19 14:03:29;;;;;;;0.60;0.60;;;;;;;;;;5104161;28;20028;-72
2023/07/19 14:05:54;;;;;;;4.75;2.83;;;;;;;;;;5102978;28;20074;-72
2023/07/19 14:08:19;;;;;;;2.17;1.60;;;;;;;;;;5097335;28;20028;-72
2023/07/19 14:10:45;;;;;;;1.17;0.85;;;;;;;;;;5104591;28;20028;-71
2023/07/19 14:13:11;;;;;;;0.70;0.70;;;;;;;;;;5099845;28;20093;-72
2023/07/19 14:15:37;;;;;;;5.97;2.10;;;;;;;;;;5088341;28;20158;-72
2023/07/19 14:18:03;;;;;;;1.50;1.40;;;;;;;;;;5091339;28;20143;-72
2023/07/19 14:20:29;;;;;;;9.23;2.78;;;;;;;;;;5094804;28;20035;-72
2023/07/19 14:22:54;;;;;;;2.25;1.50;;;;;;;;;;5093480;28;20112;-73
2023/07/19 14:25:19;;;;;;;0.52;0.52;;;;;;;;;;5098756;28;20055;-72
2023/07/19 14:27:47;;;;;;;0.45;0.45;;;;;;;;;;5096619;28;20462;-72
2023/07/19 14:30:12;;;;;;;4.25;2.03;;;;;;;;;;5097756;28;20094;-73
2023/07/19 14:32:38;;;;;;;4.20;1.27;;;;;;;;;;5095537;28;20437;-72
2023/07/19 14:35:03;;;;;;;1.45;1.35;;;;;;;;;;5079996;28;20040;-72
2023/07/19 14:37:29;;;;;;;2.40;2.10;;;;;;;;;;5077257;28;20028;-72
2023/07/19 14:39:55;;;;;;;1.92;1.25;;;;;;;;;;5099270;28;20118;-72